Time;durP1;ratioP1;P1;durP2;ratioP2;P2;SDS_P1;SDS_P2;PMS_P1;PMS_P2;Temp;Humidity;BMP_temperature;BMP_pressure;BME280_temperature;BME280_humidity;BME280_pressure;Samples;Min_cycle;Max_cycle;Signal;HPM_P1;HPM_P2
2022/12/08 00:00:21;;;;;;;0.10;0.10;;;;;;;0.45;98.52;100560.97;10475408;28;20078;-79
2022/12/08 00:10:43;;;;;;;0.20;0.20;;;;;;;0.48;98.66;100553.41;10460241;28;20460;-79
2022/12/08 00:15:50;;;;;;;0.20;0.20;;;;;;;0.50;98.42;100550.91;10468782;28;20052;-78
2022/12/08 00:20:56;;;;;;;0.20;0.20;;;;;;;0.53;98.75;100546.78;10476249;28;20041;-79
2022/12/08 00:26:02;;;;;;;0.15;0.15;;;;;;;0.52;98.73;100545.00;10444383;28;20501;-81
2022/12/08 00:31:09;;;;;;;0.10;0.10;;;;;;;0.50;98.46;100541.47;10442911;28;20091;-81
2022/12/08 00:36:13;;;;;;;0.10;0.10;;;;;;;0.57;98.50;100539.22;10443490;28;20049;-78
2022/12/08 00:41:17;;;;;;;0.10;0.10;;;;;;;0.62;98.80;100525.78;10443450;28;20037;-79
2022/12/08 00:46:19;;;;;;;0.22;0.22;;;;;;;0.77;98.77;100524.84;10442885;28;20036;-78
2022/12/08 00:51:21;;;;;;;0.30;0.20;;;;;;;0.86;99.04;100522.72;10442098;28;20044;-79
2022/12/08 00:56:24;;;;;;;0.10;0.10;;;;;;;0.92;98.88;100522.16;10442875;28;20156;-79
2022/12/08 01:01:26;;;;;;;0.10;0.10;;;;;;;0.93;98.83;100508.44;10442878;28;20037;-79
2022/12/08 01:06:28;;;;;;;0.40;0.40;;;;;;;0.91;98.77;100512.66;10442361;28;20436;-80
2022/12/08 01:11:30;;;;;;;0.17;0.17;;;;;;;0.85;98.94;100503.78;10442589;28;20769;-78
2022/12/08 01:16:34;;;;;;;0.32;0.20;;;;;;;0.87;98.61;100504.78;10423802;28;20420;-77
2022/12/08 01:21:36;;;;;;;0.10;0.10;;;;;;;0.81;98.77;100496.72;10441386;28;20493;-78
2022/12/08 01:26:37;;;;;;;0.52;0.40;;;;;;;0.90;98.87;100516.03;10440429;28;20041;-79
2022/12/08 01:31:39;;;;;;;0.28;0.28;;;;;;;0.94;98.73;100517.97;10442741;28;20033;-84
2022/12/08 01:36:43;;;;;;;0.70;0.22;;;;;;;1.00;98.82;100513.13;10432376;28;20568;-78
2022/12/08 01:41:46;;;;;;;0.20;0.20;;;;;;;1.06;98.73;100509.16;10423969;28;20041;-79
2022/12/08 01:46:48;;;;;;;0.10;0.10;;;;;;;1.09;98.88;100505.84;10440574;28;20441;-79
2022/12/08 01:52:08;;;;;;;0.20;0.20;;;;;;;1.11;99.01;100512.00;10440695;28;20041;-78
2022/12/08 01:57:22;;;;;;;1.30;0.65;;;;;;;1.12;98.89;100507.72;10422149;28;20456;-78
2022/12/08 02:02:33;;;;;;;0.20;0.20;;;;;;;1.14;98.87;100500.91;10440385;28;20037;-77
2022/12/08 02:07:35;;;;;;;0.10;0.10;;;;;;;1.11;98.74;100490.44;10439241;28;20076;-79
2022/12/08 02:12:36;;;;;;;0.40;0.40;;;;;;;1.10;99.15;100488.72;10439423;28;20575;-77
2022/12/08 02:17:53;;;;;;;0.30;0.30;;;;;;;1.08;98.82;100486.03;10438715;28;20045;-78
2022/12/08 02:23:11;;;;;;;0.30;0.30;;;;;;;1.07;99.08;100479.13;10437977;28;20130;-80
2022/12/08 02:28:27;;;;;;;2.15;0.93;;;;;;;1.09;99.30;100467.16;10438227;28;20040;-79
2022/12/08 02:34:07;;;;;;;0.98;0.95;;;;;;;1.08;98.90;100465.38;10440415;28;20044;-81
2022/12/08 02:39:26;;;;;;;0.20;0.20;;;;;;;1.14;98.98;100465.72;10439666;28;20036;-79
2022/12/08 02:44:40;;;;;;;0.97;0.20;;;;;;;1.12;98.71;100451.84;10443524;28;20094;-80
2022/12/08 02:49:42;;;;;;;0.10;0.10;;;;;;;1.16;99.06;100456.34;10431598;28;20033;-81
2022/12/08 02:54:49;;;;;;;0.40;0.35;;;;;;;1.21;98.67;100452.28;10440571;28;20499;-82
2022/12/08 03:00:17;;;;;;;0.47;0.47;;;;;;;1.27;98.81;100453.44;10439257;28;20073;-80
2022/12/08 03:05:48;;;;;;;0.22;0.22;;;;;;;1.36;98.70;100446.13;10440505;28;20053;-82
2022/12/08 03:11:00;;;;;;;0.10;0.10;;;;;;;1.29;98.75;100438.91;10442996;28;20091;-80
2022/12/08 03:16:06;;;;;;;0.10;0.10;;;;;;;1.34;98.62;100421.97;10439674;28;20040;-80
2022/12/08 03:21:09;;;;;;;0.10;0.10;;;;;;;1.26;98.95;100418.13;10446153;28;20045;-81
2022/12/08 03:26:22;;;;;;;0.10;0.10;;;;;;;1.26;98.67;100415.53;10443094;28;20036;-81
2022/12/08 03:31:28;;;;;;;0.15;0.15;;;;;;;1.23;98.94;100412.00;10445507;28;20053;-80
2022/12/08 03:36:30;;;;;;;0.30;0.20;;;;;;;1.20;98.57;100410.97;10446716;28;20127;-80
2022/12/08 03:41:32;;;;;;;0.10;0.10;;;;;;;1.22;98.69;100405.06;10481870;28;20124;-80
2022/12/08 03:46:33;;;;;;;0.43;0.43;;;;;;;1.23;98.85;100401.69;10460268;28;20044;-80
2022/12/08 03:51:35;;;;;;;0.30;0.30;;;;;;;1.21;98.54;100395.56;10457058;28;20036;-82
2022/12/08 03:56:38;;;;;;;0.10;0.10;;;;;;;1.28;98.77;100393.28;10450289;28;20481;-80
2022/12/08 04:01:39;;;;;;;0.38;0.32;;;;;;;1.29;98.85;100395.94;10479811;28;20112;-81
2022/12/08 04:06:41;;;;;;;0.10;0.10;;;;;;;1.34;98.53;100396.16;10447257;28;20048;-82
2022/12/08 04:11:42;;;;;;;0.10;0.10;;;;;;;1.32;98.53;100385.78;10442195;28;20132;-80
2022/12/08 04:16:44;;;;;;;1.55;0.73;;;;;;;1.31;98.24;100393.44;10450567;28;20643;-80
2022/12/08 04:21:46;;;;;;;0.00;0.00;;;;;;;1.31;98.74;100390.88;10445009;28;20067;-81
2022/12/08 04:26:48;;;;;;;0.10;0.10;;;;;;;1.31;98.96;100398.59;10446919;28;20045;-81
2022/12/08 04:31:50;;;;;;;0.00;0.00;;;;;;;1.28;98.69;100382.97;10453940;28;20064;-81
2022/12/08 04:36:51;;;;;;;0.10;0.10;;;;;;;1.27;98.26;100383.78;10453476;28;20056;-81
2022/12/08 04:41:53;;;;;;;0.35;0.30;;;;;;;1.29;98.54;100376.97;10447109;28;20045;-81
2022/12/08 04:46:55;;;;;;;0.20;0.20;;;;;;;1.28;98.57;100380.41;10445216;28;20061;-81
2022/12/08 04:51:57;;;;;;;0.20;0.20;;;;;;;1.29;98.58;100365.00;10447099;28;20049;-82
2022/12/08 04:56:58;;;;;;;0.10;0.10;;;;;;;1.30;98.62;100371.91;10448479;28;20083;-80
2022/12/08 05:02:00;;;;;;;0.20;0.20;;;;;;;1.30;98.71;100355.56;10448103;28;20120;-80
2022/12/08 05:07:02;;;;;;;0.13;0.13;;;;;;;1.31;98.69;100341.84;10454087;28;20045;-83
2022/12/08 05:12:04;;;;;;;0.55;0.30;;;;;;;1.30;98.48;100342.66;10452294;28;20063;-81
2022/12/08 05:17:05;;;;;;;0.28;0.28;;;;;;;1.29;98.53;100341.78;10452161;28;20554;-82
2022/12/08 05:22:10;;;;;;;0.10;0.10;;;;;;;1.24;98.69;100343.25;10454429;28;20440;-82
2022/12/08 05:27:12;;;;;;;0.10;0.10;;;;;;;1.20;98.46;100342.22;10486991;28;20463;-83
2022/12/08 05:32:13;;;;;;;0.20;0.20;;;;;;;1.21;98.72;100351.69;10456656;28;20041;-82
2022/12/08 05:37:15;;;;;;;0.32;0.32;;;;;;;1.19;98.66;100355.91;10451379;28;20055;-83
2022/12/08 05:42:17;;;;;;;0.10;0.10;;;;;;;1.17;98.63;100362.72;10442447;28;20053;-82
2022/12/08 05:47:25;;;;;;;0.10;0.10;;;;;;;1.23;98.34;100362.09;10454209;28;20041;-82
2022/12/08 05:52:31;;;;;;;0.10;0.10;;;;;;;1.18;98.54;100369.63;10453370;28;20048;-82
2022/12/08 05:57:33;;;;;;;0.10;0.10;;;;;;;1.22;98.35;100368.97;10454078;28;20087;-82
2022/12/08 06:02:34;;;;;;;0.77;0.30;;;;;;;1.19;98.38;100366.22;10457636;28;20045;-82
2022/12/08 06:07:37;;;;;;;0.10;0.10;;;;;;;1.19;98.38;100366.22;10483513;28;20044;-81
2022/12/08 06:12:39;;;;;;;0.40;0.30;;;;;;;1.19;98.31;100366.22;10465800;28;20094;-80
2022/12/08 06:17:40;;;;;;;0.20;0.20;;;;;;;1.25;98.39;100360.50;10460319;28;20048;-81
2022/12/08 06:22:42;;;;;;;0.10;0.10;;;;;;;1.27;98.67;100347.66;10465624;28;20525;-85
2022/12/08 06:27:43;;;;;;;0.10;0.10;;;;;;;1.19;98.56;100330.13;10452970;28;20041;-81
2022/12/08 06:32:45;;;;;;;0.10;0.10;;;;;;;1.12;98.39;100317.75;10455081;28;20045;-82
2022/12/08 06:37:46;;;;;;;0.20;0.20;;;;;;;1.04;98.25;100319.09;10452030;28;20249;-82
2022/12/08 06:42:48;;;;;;;3.63;1.75;;;;;;;0.99;98.38;100330.84;10450103;28;20075;-82
2022/12/08 06:47:50;;;;;;;0.10;0.10;;;;;;;0.98;98.18;100347.16;10446975;28;20049;-81
2022/12/08 06:52:51;;;;;;;0.55;0.47;;;;;;;0.96;98.37;100361.66;10451582;28;20041;-82
2022/12/08 06:58:05;;;;;;;0.10;0.10;;;;;;;0.93;98.10;100361.50;10452229;28;20057;-84
2022/12/08 07:03:08;;;;;;;0.10;0.10;;;;;;;0.95;98.20;100375.38;10475603;28;20094;-81
2022/12/08 07:08:09;;;;;;;0.20;0.20;;;;;;;0.92;98.21;100373.53;10492723;28;20051;-82
2022/12/08 07:13:11;;;;;;;0.22;0.22;;;;;;;0.83;98.28;100380.81;10483411;28;20037;-82
2022/12/08 07:18:13;;;;;;;0.10;0.10;;;;;;;0.77;98.33;100383.06;10488680;28;20048;-83
2022/12/08 07:23:15;;;;;;;0.10;0.10;;;;;;;0.76;98.29;100379.59;10463324;28;20053;-80
2022/12/08 07:28:16;;;;;;;0.10;0.10;;;;;;;0.68;98.24;100379.22;10448437;28;20047;-80
2022/12/08 07:33:18;;;;;;;0.95;0.50;;;;;;;0.66;98.43;100382.50;10450715;28;20111;-82
2022/12/08 07:38:19;;;;;;;0.10;0.10;;;;;;;0.58;98.18;100384.72;10449838;28;20128;-80
2022/12/08 07:43:22;;;;;;;0.20;0.20;;;;;;;0.59;98.09;100390.78;10449494;28;20052;-82
2022/12/08 07:48:23;;;;;;;0.10;0.10;;;;;;;0.64;98.27;100397.03;10454198;28;20686;-81
2022/12/08 07:53:25;;;;;;;0.20;0.20;;;;;;;0.66;98.43;100397.97;10447042;28;20049;-82
2022/12/08 07:58:26;;;;;;;0.20;0.20;;;;;;;0.67;98.09;100399.75;10433066;28;20049;-81
2022/12/08 08:03:28;;;;;;;0.30;0.30;;;;;;;0.65;98.05;100401.38;10430488;28;20552;-80
2022/12/08 08:08:30;;;;;;;0.10;0.10;;;;;;;0.58;98.21;100394.13;10463270;28;20042;-81
2022/12/08 08:13:32;;;;;;;0.00;0.00;;;;;;;0.52;98.24;100393.00;10488305;28;20389;-82
2022/12/08 08:18:36;;;;;;;0.10;0.10;;;;;;;0.49;97.99;100389.41;10472870;28;20051;-84
2022/12/08 08:23:38;;;;;;;0.20;0.20;;;;;;;0.43;98.23;100397.69;10452336;28;20041;-82
2022/12/08 08:28:39;;;;;;;0.65;0.52;;;;;;;0.39;98.12;100403.50;10450885;28;20037;-82
2022/12/08 08:33:41;;;;;;;0.85;0.35;;;;;;;0.34;98.06;100420.41;10456008;28;20045;-82
2022/12/08 08:38:43;;;;;;;0.47;0.38;;;;;;;0.35;98.01;100420.47;10448557;28;20049;-81
2022/12/08 08:43:44;;;;;;;0.10;0.10;;;;;;;0.37;97.97;100425.72;10432769;28;20041;-82
2022/12/08 08:48:46;;;;;;;0.00;0.00;;;;;;;0.33;98.13;100421.19;10458127;28;20500;-82
2022/12/08 08:53:48;;;;;;;0.10;0.10;;;;;;;0.33;97.80;100418.63;10450731;28;20064;-82
2022/12/08 08:58:52;;;;;;;0.10;0.10;;;;;;;0.34;98.34;100423.84;10439975;28;20168;-83
2022/12/08 09:03:54;;;;;;;0.17;0.17;;;;;;;0.32;97.76;100427.19;10449356;28;20060;-82
2022/12/08 09:08:56;;;;;;;0.10;0.10;;;;;;;0.32;98.04;100427.19;10446736;28;20139;-81
2022/12/08 09:13:58;;;;;;;0.10;0.10;;;;;;;0.25;97.94;100435.38;10455750;28;20045;-81
2022/12/08 09:19:01;;;;;;;0.20;0.20;;;;;;;0.23;97.88;100442.16;10443714;28;20072;-81
2022/12/08 09:24:03;;;;;;;0.30;0.30;;;;;;;0.24;97.70;100446.47;10451034;28;20045;-81
2022/12/08 09:29:04;;;;;;;0.10;0.10;;;;;;;0.23;98.01;100437.00;10451738;28;20102;-81
2022/12/08 09:34:06;;;;;;;0.57;0.20;;;;;;;0.26;98.16;100437.16;10433712;28;20044;-81
2022/12/08 09:39:08;;;;;;;0.10;0.10;;;;;;;0.29;98.21;100442.47;10438746;28;20048;-81
2022/12/08 09:44:21;;;;;;;0.10;0.10;;;;;;;0.28;97.92;100432.97;10442507;28;20048;-81
2022/12/08 09:49:37;;;;;;;0.28;0.25;;;;;;;0.33;97.99;100434.97;10414258;28;20037;-82
2022/12/08 09:54:38;;;;;;;0.30;0.30;;;;;;;0.38;98.27;100432.63;10438431;28;20040;-82
2022/12/08 09:59:46;;;;;;;0.20;0.20;;;;;;;0.64;98.28;100425.38;10437166;28;20037;-81
2022/12/08 10:04:48;;;;;;;0.38;0.38;;;;;;;0.94;98.51;100431.19;10429487;28;20143;-81
2022/12/08 10:10:19;;;;;;;0.52;0.43;;;;;;;0.94;98.51;100431.19;10433731;28;20045;-82
2022/12/08 10:15:40;;;;;;;0.28;0.20;;;;;;;1.41;98.19;100414.59;10424526;28;20067;-80
2022/12/08 10:20:44;;;;;;;0.15;0.15;;;;;;;1.57;97.99;100408.44;10434138;28;20040;-81
2022/12/08 10:25:55;;;;;;;0.10;0.10;;;;;;;1.53;98.03;100413.38;10429380;28;20702;-80
2022/12/08 10:30:57;;;;;;;0.55;0.52;;;;;;;1.64;98.21;100401.88;10433799;28;20039;-80
2022/12/08 10:36:03;;;;;;;0.10;0.10;;;;;;;1.58;97.83;100401.59;10427068;28;20053;-80
2022/12/08 10:41:10;;;;;;;0.43;0.40;;;;;;;1.68;97.61;100413.22;10440776;28;20064;-80
2022/12/08 10:46:15;;;;;;;0.13;0.13;;;;;;;2.03;97.67;100411.41;10438383;28;20390;-80
2022/12/08 10:51:23;;;;;;;0.52;0.52;;;;;;;2.29;97.34;100421.19;10443723;28;20112;-80
2022/12/08 10:56:27;;;;;;;0.25;0.20;;;;;;;2.62;97.21;100409.69;10436527;28;20889;-81
2022/12/08 11:01:36;;;;;;;0.10;0.10;;;;;;;2.89;97.04;100412.56;10432907;28;20037;-80
2022/12/08 11:06:39;;;;;;;0.20;0.20;;;;;;;3.16;96.60;100417.13;10427843;28;20033;-79
2022/12/08 11:11:50;;;;;;;0.20;0.20;;;;;;;3.14;96.16;100423.94;10424423;28;20551;-79
2022/12/08 11:16:55;;;;;;;0.60;0.60;;;;;;;3.12;95.59;100417.81;10433256;28;20052;-80
2022/12/08 11:21:57;;;;;;;0.20;0.20;;;;;;;2.95;95.16;100418.00;10454806;28;20830;-80
2022/12/08 11:27:02;;;;;;;0.40;0.30;;;;;;;2.99;94.77;100413.84;10423745;28;20103;-79
2022/12/08 11:32:11;;;;;;;0.55;0.22;;;;;;;3.24;94.43;100420.88;10410385;28;20042;-78
2022/12/08 11:37:27;;;;;;;0.25;0.25;;;;;;;3.24;94.29;100415.72;10418941;28;20115;-79
2022/12/08 11:42:52;;;;;;;0.90;0.52;;;;;;;3.27;93.79;100413.28;10413865;28;20037;-79
2022/12/08 11:48:18;;;;;;;0.20;0.20;;;;;;;3.10;93.40;100411.69;10404463;28;20795;-79
2022/12/08 11:53:27;;;;;;;0.30;0.30;;;;;;;3.05;93.29;100408.94;10433583;28;20045;-79
2022/12/08 11:58:43;;;;;;;0.17;0.17;;;;;;;3.18;92.99;100399.94;10428912;28;20041;-79
2022/12/08 12:03:52;;;;;;;0.80;0.40;;;;;;;3.12;92.72;100399.69;10444363;28;20099;-78
2022/12/08 12:09:10;;;;;;;1.40;0.50;;;;;;;3.27;92.49;100408.09;10450692;28;20560;-79
2022/12/08 12:14:27;;;;;;;0.25;0.25;;;;;;;3.27;92.29;100392.59;10446564;28;20492;-79
2022/12/08 12:19:34;;;;;;;0.38;0.32;;;;;;;3.33;91.69;100392.81;10443424;28;20045;-80
2022/12/08 12:24:37;;;;;;;0.13;0.13;;;;;;;3.36;91.28;100392.03;10443612;28;20094;-79
2022/12/08 12:29:48;;;;;;;0.63;0.30;;;;;;;3.44;90.95;100393.25;10451987;28;20045;-79
2022/12/08 12:34:59;;;;;;;1.13;0.88;;;;;;;3.43;90.71;100395.78;10442595;28;20091;-79
2022/12/08 12:40:04;;;;;;;0.47;0.47;;;;;;;3.16;90.31;100392.13;10441589;28;20045;-79
2022/12/08 12:45:15;;;;;;;0.52;0.40;;;;;;;3.16;90.14;100393.84;10435857;28;20045;-79
2022/12/08 12:50:32;;;;;;;0.47;0.47;;;;;;;3.23;89.85;100401.03;10442256;28;20420;-79
2022/12/08 12:55:58;;;;;;;0.20;0.20;;;;;;;3.31;89.90;100397.03;10443806;28;20376;-79
2022/12/08 13:01:09;;;;;;;0.15;0.15;;;;;;;3.19;89.49;100389.66;10442970;28;20049;-79
2022/12/08 13:06:13;;;;;;;0.13;0.13;;;;;;;3.08;89.40;100387.44;10444804;28;20067;-79
2022/12/08 13:11:16;;;;;;;0.40;0.40;;;;;;;2.88;89.32;100386.63;10444409;28;20048;-79
2022/12/08 13:16:23;;;;;;;0.30;0.30;;;;;;;2.91;89.20;100391.94;10441171;28;20103;-79
2022/12/08 13:21:31;;;;;;;1.20;0.57;;;;;;;2.91;89.27;100392.84;10425553;28;20059;-79
2022/12/08 13:26:43;;;;;;;0.35;0.25;;;;;;;2.77;89.35;100393.94;10442637;28;20064;-79
2022/12/08 13:31:55;;;;;;;0.50;0.50;;;;;;;2.69;89.21;100400.47;10442826;28;20044;-79
2022/12/08 13:37:14;;;;;;;0.70;0.50;;;;;;;2.58;89.23;100400.94;10441882;28;20045;-79
2022/12/08 13:42:32;;;;;;;0.10;0.10;;;;;;;2.47;89.37;100395.28;10467872;28;20047;-79
2022/12/08 13:47:40;;;;;;;0.77;0.55;;;;;;;2.32;89.30;100398.91;10450046;28;20041;-79
2022/12/08 13:53:20;;;;;;;8.27;1.10;;;;;;;2.19;89.67;100392.31;10434627;28;20098;-79
2022/12/08 13:58:42;;;;;;;0.25;0.25;;;;;;;2.11;89.70;100398.00;10437627;28;20040;-79
2022/12/08 14:03:49;;;;;;;1.10;0.35;;;;;;;2.01;89.58;100392.38;10425140;28;20131;-79
2022/12/08 14:09:14;;;;;;;3.30;0.40;;;;;;;1.85;89.74;100396.84;10445373;28;20045;-79
2022/12/08 14:14:20;;;;;;;0.30;0.30;;;;;;;1.79;89.89;100400.81;10431174;28;20069;-79
2022/12/08 14:19:44;;;;;;;0.10;0.10;;;;;;;1.67;89.85;100412.34;10422841;28;20126;-79
2022/12/08 14:24:47;;;;;;;0.98;0.50;;;;;;;1.55;89.78;100424.69;10425221;28;20044;-79
2022/12/08 14:29:52;;;;;;;0.63;0.45;;;;;;;1.42;90.16;100418.91;10434254;28;20544;-79
2022/12/08 14:34:56;;;;;;;0.68;0.30;;;;;;;1.37;90.12;100422.13;10437260;28;20048;-81
2022/12/08 14:40:02;;;;;;;0.15;0.15;;;;;;;1.24;90.14;100415.47;10420465;28;20107;-79
2022/12/08 14:45:10;;;;;;;0.52;0.38;;;;;;;1.13;90.73;100429.53;10437015;28;20045;-79
2022/12/08 14:50:41;;;;;;;0.22;0.22;;;;;;;1.00;90.38;100435.78;10371719;28;20054;-80
2022/12/08 14:55:46;;;;;;;1.15;0.90;;;;;;;0.87;90.61;100430.00;10387856;28;20130;-78
2022/12/08 15:00:51;;;;;;;0.15;0.15;;;;;;;0.73;90.78;100433.56;10387570;28;20056;-78
2022/12/08 15:05:57;;;;;;;0.28;0.28;;;;;;;0.54;90.88;100442.03;10397781;28;20100;-78
2022/12/08 15:11:20;;;;;;;0.50;0.50;;;;;;;0.36;91.07;100441.97;10388737;28;20041;-79
2022/12/08 15:16:41;;;;;;;0.32;0.32;;;;;;;0.19;91.60;100442.78;10387421;28;20111;-78
2022/12/08 15:21:44;;;;;;;0.20;0.20;;;;;;;0.03;91.38;100431.66;10393800;28;20033;-78
2022/12/08 15:26:48;;;;;;;1.08;0.77;;;;;;;-0.12;91.75;100441.13;10397784;28;20045;-78
2022/12/08 15:31:52;;;;;;;0.77;0.75;;;;;;;-0.28;91.68;100448.00;10399042;28;20042;-79
2022/12/08 15:36:54;;;;;;;0.65;0.35;;;;;;;-0.41;92.18;100449.00;10382125;28;20061;-79
2022/12/08 15:41:55;;;;;;;0.55;0.50;;;;;;;-0.52;92.09;100449.22;10384388;28;20041;-79
2022/12/08 15:46:58;;;;;;;0.50;0.50;;;;;;;-0.62;92.14;100461.53;10393143;28;20045;-79
2022/12/08 15:51:59;;;;;;;1.38;1.08;;;;;;;-0.73;92.28;100457.50;10401311;28;20045;-79
2022/12/08 15:57:18;;;;;;;0.38;0.38;;;;;;;-0.80;92.85;100460.50;10390836;28;20056;-79
2022/12/08 16:02:39;;;;;;;1.48;1.17;;;;;;;-0.93;92.61;100464.03;10404223;28;20099;-79
2022/12/08 16:08:01;;;;;;;2.03;1.02;;;;;;;-1.04;92.80;100471.13;10412942;28;20088;-80
2022/12/08 16:18:58;;;;;;;0.30;0.30;;;;;;;-1.29;93.36;100479.97;10450530;28;20416;-80
2022/12/08 16:23:59;;;;;;;0.55;0.55;;;;;;;-1.37;93.20;100473.47;10446405;28;20102;-80
2022/12/08 16:29:17;;;;;;;0.50;0.50;;;;;;;-1.43;93.33;100480.81;10449514;28;20048;-80
2022/12/08 16:34:19;;;;;;;0.47;0.47;;;;;;;-1.45;93.80;100487.56;10436871;28;20056;-80
2022/12/08 16:39:20;;;;;;;2.53;1.95;;;;;;;-1.44;93.44;100492.78;10462453;28;20049;-79
2022/12/08 16:44:22;;;;;;;2.17;0.98;;;;;;;-1.39;94.09;100492.19;10446786;28;20040;-80
2022/12/08 16:49:23;;;;;;;1.88;1.33;;;;;;;-1.39;94.11;100498.19;10445437;28;20048;-78
2022/12/08 16:54:25;;;;;;;0.85;0.85;;;;;;;-1.43;94.16;100494.56;10444982;28;20041;-80
2022/12/08 16:59:26;;;;;;;0.30;0.30;;;;;;;-1.46;94.16;100498.59;10444940;28;20090;-78
2022/12/08 17:04:29;;;;;;;0.85;0.82;;;;;;;-1.51;94.63;100492.31;10444482;28;20048;-79
2022/12/08 17:09:32;;;;;;;0.70;0.68;;;;;;;-1.56;94.53;100501.41;10443527;28;20114;-79
2022/12/08 17:14:34;;;;;;;2.17;1.73;;;;;;;-1.50;94.75;100507.81;10445193;28;20045;-79
2022/12/08 17:19:36;;;;;;;0.80;0.80;;;;;;;-1.51;94.98;100510.28;10445949;28;20047;-78
2022/12/08 17:24:38;;;;;;;0.47;0.47;;;;;;;-1.51;95.13;100512.88;10445493;28;20056;-77
2022/12/08 17:29:39;;;;;;;1.23;0.70;;;;;;;-1.43;95.29;100503.94;10441644;28;20606;-76
2022/12/08 17:34:41;;;;;;;0.50;0.50;;;;;;;-1.47;95.28;100502.88;10440746;28;20043;-79
2022/12/08 17:39:42;;;;;;;0.65;0.57;;;;;;;-1.46;95.60;100511.44;10446055;28;20458;-78
2022/12/08 17:44:45;;;;;;;0.55;0.55;;;;;;;-1.47;95.37;100507.09;10463783;28;20138;-76
2022/12/08 17:49:46;;;;;;;0.65;0.65;;;;;;;-1.46;95.84;100498.59;10442071;28;20037;-78
2022/12/08 17:54:48;;;;;;;1.30;0.98;;;;;;;-1.39;95.88;100499.88;10417777;28;20041;-76
2022/12/08 17:59:50;;;;;;;0.43;0.43;;;;;;;-1.34;95.84;100506.16;10436078;28;20793;-76
2022/12/08 18:04:51;;;;;;;0.50;0.50;;;;;;;-1.21;96.37;100503.53;10440361;28;20041;-79
2022/12/08 18:09:53;;;;;;;1.08;0.88;;;;;;;-1.28;96.21;100506.53;10439243;28;20568;-77
2022/12/08 18:14:55;;;;;;;1.63;1.30;;;;;;;-1.36;96.28;100508.66;10440476;28;20043;-77
2022/12/08 18:19:56;;;;;;;0.65;0.65;;;;;;;-1.35;96.33;100504.38;10438533;28;20501;-76
2022/12/08 18:24:58;;;;;;;0.40;0.40;;;;;;;-1.36;96.64;100498.38;10438594;28;20594;-77
2022/12/08 18:30:00;;;;;;;2.33;0.90;;;;;;;-1.41;96.49;100507.50;10439827;28;20056;-76
2022/12/08 18:35:02;;;;;;;1.75;0.88;;;;;;;-1.51;96.46;100508.59;10446424;28;20134;-77
2022/12/08 18:40:04;;;;;;;0.85;0.82;;;;;;;-1.50;96.64;100512.03;10438167;28;20052;-76
2022/12/08 18:45:07;;;;;;;0.85;0.77;;;;;;;-1.44;96.78;100505.63;10440423;28;20084;-78
2022/12/08 18:50:10;;;;;;;0.47;0.47;;;;;;;-1.38;96.82;100509.34;10439723;28;20424;-78
2022/12/08 18:55:12;;;;;;;1.17;1.08;;;;;;;-1.40;96.93;100511.81;10434349;28;20048;-77
2022/12/08 19:00:16;;;;;;;7.45;1.42;;;;;;;-1.49;96.83;100511.25;10436011;28;20045;-77
2022/12/08 19:05:18;;;;;;;0.28;0.28;;;;;;;-1.51;97.30;100513.75;10459039;28;20044;-82
2022/12/08 19:10:20;;;;;;;1.70;1.08;;;;;;;-1.44;97.09;100510.75;10463754;28;20131;-77
2022/12/08 19:15:21;;;;;;;1.83;1.63;;;;;;;-1.30;96.89;100518.41;10470871;28;20121;-81
2022/12/08 19:20:23;;;;;;;0.45;0.45;;;;;;;-1.26;97.25;100521.25;10457220;28;20194;-78
2022/12/08 19:25:26;;;;;;;4.15;2.45;;;;;;;-1.17;97.40;100523.50;10439625;28;20053;-81
2022/12/08 19:30:27;;;;;;;1.80;0.70;;;;;;;-1.13;97.53;100519.41;10469816;28;20504;-77
2022/12/08 19:35:29;;;;;;;1.45;1.08;;;;;;;-1.14;97.57;100513.41;10461288;28;20152;-78
2022/12/08 19:45:51;;;;;;;2.17;1.60;;;;;;;-1.27;97.51;100521.16;10470568;28;20055;-80
2022/12/08 19:50:52;;;;;;;0.57;0.57;;;;;;;-1.31;97.56;100522.66;10451861;28;20493;-79
2022/12/08 19:55:54;;;;;;;1.40;1.08;;;;;;;-1.25;97.64;100530.75;10440080;28;20047;-77
2022/12/08 20:00:55;;;;;;;1.38;0.60;;;;;;;-1.15;97.81;100526.16;10463109;28;20481;-76
2022/12/08 20:05:57;;;;;;;0.40;0.40;;;;;;;-1.04;97.85;100532.81;10471083;28;20048;-80
2022/12/08 20:10:58;;;;;;;1.45;1.08;;;;;;;-0.95;98.26;100528.22;10461822;28;20106;-77
2022/12/08 20:16:00;;;;;;;1.48;1.05;;;;;;;-0.88;98.04;100538.88;10463257;28;20051;-77
2022/12/08 20:21:02;;;;;;;1.90;1.30;;;;;;;-0.81;98.24;100541.00;10449622;28;20052;-79
2022/12/08 20:26:07;;;;;;;3.25;2.08;;;;;;;-0.72;98.45;100541.56;10480434;28;20052;-77
2022/12/08 20:31:16;;;;;;;0.90;0.82;;;;;;;-0.57;98.30;100536.38;10459328;28;20040;-77
2022/12/08 20:36:20;;;;;;;2.45;1.52;;;;;;;-0.52;98.62;100544.41;10469595;28;20048;-77
2022/12/08 20:41:22;;;;;;;1.10;1.00;;;;;;;-0.51;98.47;100535.84;10470033;28;20044;-80
2022/12/08 20:46:24;;;;;;;1.13;0.77;;;;;;;-0.48;98.69;100551.47;10460431;28;20076;-78
2022/12/08 20:51:26;;;;;;;0.90;0.82;;;;;;;-0.46;98.40;100550.75;10480350;28;20044;-77
2022/12/08 20:56:32;;;;;;;2.35;1.35;;;;;;;-0.45;98.27;100547.41;10452446;28;20621;-79
2022/12/08 21:01:34;;;;;;;0.85;0.85;;;;;;;-0.45;98.53;100546.50;10452525;28;20040;-77
2022/12/08 21:06:36;;;;;;;0.45;0.45;;;;;;;-0.47;98.79;100548.97;10459601;28;20736;-78
2022/12/08 21:11:39;;;;;;;0.50;0.45;;;;;;;-0.39;98.69;100546.84;10473843;28;20052;-78
2022/12/08 21:16:40;;;;;;;0.82;0.82;;;;;;;-0.42;99.05;100546.66;10449539;28;20102;-79
2022/12/08 21:21:44;;;;;;;0.77;0.77;;;;;;;-0.43;98.67;100544.91;10445098;28;20517;-81
2022/12/08 21:26:46;;;;;;;0.32;0.32;;;;;;;-0.46;98.51;100542.16;10443488;28;20124;-78
2022/12/08 21:31:49;;;;;;;1.45;1.33;;;;;;;-0.48;98.48;100546.31;10442383;28;20056;-78
2022/12/08 21:36:51;;;;;;;3.15;1.00;;;;;;;-0.51;98.61;100552.19;10447552;28;20052;-77
2022/12/08 21:47:14;;;;;;;;;;;;;;;-0.60;98.56;100557.69;10457485;28;20821;-78
2022/12/08 21:52:16;;;;;;;0.38;0.38;;;;;;;-0.66;98.93;100549.63;10462165;28;20008;-80
2022/12/08 21:57:18;;;;;;;0.63;0.63;;;;;;;-0.64;98.87;100544.56;10463752;28;20647;-79
2022/12/08 22:02:19;;;;;;;1.02;0.77;;;;;;;-0.62;99.01;100548.97;10469407;28;20045;-78
2022/12/08 22:07:23;;;;;;;0.95;0.80;;;;;;;-0.63;98.76;100542.09;10431535;28;20067;-79
2022/12/08 22:12:25;;;;;;;0.50;0.40;;;;;;;-0.59;98.88;100544.00;10458402;28;20033;-79
2022/12/08 22:17:27;;;;;;;4.10;1.55;;;;;;;-0.56;98.70;100549.34;10441977;28;20052;-78
2022/12/08 22:22:32;;;;;;;0.47;0.47;;;;;;;-0.49;98.45;100558.31;10475468;28;20055;-78
2022/12/08 22:27:34;;;;;;;0.25;0.25;;;;;;;-0.47;98.53;100543.84;10457988;28;20550;-82
2022/12/08 22:32:36;;;;;;;0.63;0.60;;;;;;;-0.40;98.60;100555.38;10457888;28;20040;-78
2022/12/08 22:37:37;;;;;;;2.13;1.80;;;;;;;-0.36;98.32;100552.19;10473444;28;20143;-78
2022/12/08 22:42:39;;;;;;;0.40;0.40;;;;;;;-0.38;98.53;100552.06;10472984;28;20055;-80
2022/12/08 22:47:41;;;;;;;0.30;0.30;;;;;;;-0.33;98.60;100557.53;10455816;28;20568;-80
2022/12/08 22:52:43;;;;;;;0.77;0.68;;;;;;;-0.32;98.64;100564.41;10452069;28;20048;-80
2022/12/08 22:57:45;;;;;;;1.85;0.95;;;;;;;-0.30;98.42;100557.69;10435734;28;20100;-78
2022/12/08 23:02:47;;;;;;;1.80;0.98;;;;;;;-0.27;98.02;100552.72;10453055;28;20361;-79
2022/12/08 23:07:49;;;;;;;1.10;0.40;;;;;;;-0.23;97.91;100558.91;10441886;28;20063;-80
2022/12/08 23:12:52;;;;;;;0.35;0.35;;;;;;;-0.23;98.06;100561.47;10448590;28;20041;-79
2022/12/08 23:17:53;;;;;;;0.40;0.40;;;;;;;-0.23;97.55;100559.78;10448053;28;20057;-80
2022/12/08 23:22:55;;;;;;;1.70;1.30;;;;;;;-0.21;97.53;100560.78;10439666;28;20068;-80
2022/12/08 23:27:57;;;;;;;0.47;0.47;;;;;;;-0.13;97.65;100565.47;10429785;28;20676;-79
2022/12/08 23:32:59;;;;;;;0.45;0.45;;;;;;;-0.13;97.51;100560.34;10471573;28;20079;-80
2022/12/08 23:38:01;;;;;;;3.83;2.08;;;;;;;-0.11;97.52;100558.72;10447892;28;20099;-81
2022/12/08 23:43:04;;;;;;;1.33;0.98;;;;;;;-0.13;97.26;100556.06;10442792;28;20045;-80
2022/12/08 23:48:06;;;;;;;0.82;0.63;;;;;;;-0.10;97.27;100555.34;10442273;28;20048;-79
2022/12/08 23:53:08;;;;;;;0.25;0.25;;;;;;;-0.16;97.09;100555.00;10430180;28;20051;-78